createdAt,value
2023-02-11T00:00:02.123Z,100266.78
2023-02-11T00:05:07.950Z,100264.97
2023-02-11T00:10:11.010Z,100270.22
2023-02-11T00:15:15.145Z,100264.91
2023-02-11T00:20:17.980Z,100272.75
2023-02-11T00:25:21.017Z,100271.94
2023-02-11T00:30:25.505Z,100263.06
2023-02-11T00:35:30.023Z,100262.13
2023-02-11T00:40:32.769Z,100257.69
2023-02-11T00:45:36.989Z,100257.63
2023-02-11T00:50:39.777Z,100250.53
2023-02-11T00:55:42.895Z,100247.00
2023-02-11T01:00:48.100Z,100246.06
2023-02-11T01:05:51.127Z,100249.63
2023-02-11T01:10:58.703Z,100247.78
2023-02-11T01:16:02.969Z,100244.28
2023-02-11T01:21:06.116Z,100234.63
2023-02-11T01:26:08.852Z,100231.13
2023-02-11T01:31:13.072Z,100240.81
2023-02-11T01:36:15.949Z,100228.63
2023-02-11T01:41:18.684Z,100231.28
2023-02-11T01:46:31.025Z,100219.19
2023-02-11T01:51:39.366Z,100217.53
2023-02-11T01:57:05.572Z,100218.53
2023-02-11T02:02:13.271Z,100205.56
2023-02-11T02:07:26.089Z,100210.09
2023-02-11T02:12:28.880Z,100216.34
2023-02-11T02:17:42.192Z,100217.41
2023-02-11T02:23:17.923Z,100225.31
2023-02-11T02:28:44.454Z,100227.22
2023-02-11T02:33:57.318Z,100226.47
2023-02-11T02:39:05.507Z,100211.75
2023-02-11T02:44:09.360Z,100200.34
2023-02-11T02:49:15.479Z,100209.09
2023-02-11T02:55:06.870Z,100214.38
2023-02-11T03:00:19.205Z,100216.13
2023-02-11T03:05:32.824Z,100209.28
2023-02-11T03:10:39.328Z,100212.00
2023-02-11T03:15:44.972Z,100199.81
2023-02-11T03:20:51.831Z,100174.50
2023-02-11T03:26:00.441Z,100163.09
2023-02-11T03:31:12.242Z,100158.75
2023-02-11T03:36:21.821Z,100144.88
2023-02-11T03:41:26.063Z,100138.03
2023-02-11T03:46:33.122Z,100130.31
2023-02-11T03:51:37.783Z,100135.72
2023-02-11T03:56:49.973Z,100158.69
2023-02-11T04:01:53.459Z,100168.50
2023-02-11T04:06:58.322Z,100166.84
2023-02-11T04:12:01.402Z,100157.22
2023-02-11T04:17:04.304Z,100156.38
2023-02-11T04:22:09.329Z,100156.31
2023-02-11T04:27:12.156Z,100152.03
2023-02-11T04:32:15.952Z,100141.69
2023-02-11T04:37:20.092Z,100143.56
2023-02-11T04:42:22.826Z,100140.94
2023-02-11T04:47:25.638Z,100145.44
2023-02-11T04:52:29.731Z,100147.25
2023-02-11T04:57:32.499Z,100131.47
2023-02-11T05:02:35.211Z,100121.06
2023-02-11T05:07:39.388Z,100118.41
2023-02-11T05:12:42.140Z,100126.31
2023-02-11T05:17:44.855Z,100149.06
2023-02-11T05:22:49.309Z,100148.38
2023-02-11T05:27:52.245Z,100159.03
2023-02-11T05:32:55.084Z,100155.88
2023-02-11T05:37:59.151Z,100150.16
2023-02-11T05:43:01.991Z,100154.78
2023-02-11T05:48:04.909Z,100154.19
2023-02-11T05:53:09.221Z,100158.69
2023-02-11T05:58:12.186Z,100160.59
2023-02-11T06:03:15.027Z,100163.34
2023-02-11T06:08:19.341Z,100167.69
2023-02-11T06:13:22.057Z,100155.22
2023-02-11T06:18:24.807Z,100154.34
2023-02-11T06:23:30.460Z,100150.81
2023-02-11T06:28:33.809Z,100139.44
2023-02-11T06:33:37.033Z,100134.88
2023-02-11T06:38:41.154Z,100126.69
2023-02-11T06:43:44.386Z,100124.69
2023-02-11T06:48:47.252Z,100134.91
2023-02-11T06:53:51.449Z,100141.69
2023-02-11T06:58:55.800Z,100144.06
2023-02-11T07:03:58.530Z,100147.25
2023-02-11T07:09:02.731Z,100143.38
2023-02-11T07:14:08.330Z,100151.88
2023-02-11T07:19:11.217Z,100146.38
2023-02-11T07:24:15.724Z,100154.88
2023-02-11T07:29:18.426Z,100153.75
2023-02-11T07:34:21.236Z,100155.13
2023-02-11T07:39:27.399Z,100175.00
2023-02-11T07:44:30.334Z,100180.84
2023-02-11T07:49:33.295Z,100184.94
2023-02-11T07:54:37.437Z,100194.31
2023-02-11T07:59:40.213Z,100192.41
2023-02-11T08:04:42.998Z,100195.34
2023-02-11T08:09:47.476Z,100201.31
2023-02-11T08:14:50.198Z,100200.31
2023-02-11T08:19:52.985Z,100199.13
2023-02-11T08:24:58.333Z,100197.19
2023-02-11T08:30:02.003Z,100196.00
2023-02-11T08:35:05.044Z,100196.75
2023-02-11T08:40:10.380Z,100191.34
2023-02-11T08:45:13.353Z,100199.72
2023-02-11T08:50:16.230Z,100204.94
2023-02-11T08:55:20.580Z,100193.25
2023-02-11T09:00:24.045Z,100205.56
2023-02-11T09:05:27.596Z,100215.16
2023-02-11T09:10:31.677Z,100223.03
2023-02-11T09:15:34.752Z,100233.16
2023-02-11T09:20:37.571Z,100237.16
2023-02-11T09:25:42.189Z,100239.34
2023-02-11T09:30:45.065Z,100236.22
2023-02-11T09:35:47.911Z,100244.66
2023-02-11T09:40:52.312Z,100246.06
2023-02-11T09:45:56.802Z,100252.72
2023-02-11T09:51:04.375Z,100251.84
2023-02-11T09:56:14.401Z,100254.03
2023-02-11T10:01:28.775Z,100260.84
2023-02-11T10:06:44.147Z,100273.69
2023-02-11T10:11:58.213Z,100276.13
2023-02-11T10:17:13.014Z,100275.97
2023-02-11T10:22:20.930Z,100271.78
2023-02-11T10:27:31.648Z,100279.53
2023-02-11T10:32:40.454Z,100275.16
2023-02-11T10:37:44.594Z,100274.03
2023-02-11T10:42:50.935Z,100280.84
2023-02-11T10:47:55.277Z,100273.41
2023-02-11T10:53:14.246Z,100272.72
2023-02-11T10:58:25.744Z,100264.69
2023-02-11T11:03:33.169Z,100262.75
2023-02-11T11:08:42.888Z,100262.13
2023-02-11T11:14:00.785Z,100262.06
2023-02-11T11:19:22.387Z,100266.97
2023-02-11T11:24:29.529Z,100266.16
2023-02-11T11:29:35.793Z,100265.84
2023-02-11T11:34:42.273Z,100268.47
2023-02-11T11:39:53.624Z,100268.16
2023-02-11T11:45:00.348Z,100257.38
2023-02-11T11:50:26.117Z,100252.09
2023-02-11T11:55:34.354Z,100261.16
2023-02-11T12:00:48.188Z,100258.63
2023-02-11T12:06:04.576Z,100246.50
2023-02-11T12:11:18.519Z,100255.88
2023-02-11T12:16:34.820Z,100258.44
2023-02-11T12:21:46.721Z,100266.22
2023-02-11T12:26:57.586Z,100261.50
2023-02-11T12:32:18.934Z,100267.72
2023-02-11T12:37:37.005Z,100251.84
2023-02-11T12:43:08.811Z,100244.72
2023-02-11T12:48:35.719Z,100244.38
2023-02-11T12:54:10.108Z,100253.13
2023-02-11T12:59:19.409Z,100250.44
2023-02-11T13:04:30.517Z,100243.06
2023-02-11T13:09:39.771Z,100245.97
2023-02-11T13:14:42.949Z,100245.03
2023-02-11T13:19:52.299Z,100232.25
2023-02-11T13:25:03.794Z,100229.94
2023-02-11T13:30:24.424Z,100227.16
2023-02-11T13:35:31.984Z,100222.69
2023-02-11T13:40:37.654Z,100208.78
2023-02-11T13:45:44.645Z,100204.38
2023-02-11T13:50:51.992Z,100198.16
2023-02-11T13:56:08.429Z,100209.47
2023-02-11T14:01:11.338Z,100199.00
2023-02-11T14:06:35.995Z,100208.44
2023-02-11T14:11:55.423Z,100217.25
2023-02-11T14:17:21.604Z,100234.69
2023-02-11T14:22:29.637Z,100234.59
2023-02-11T14:27:43.933Z,100228.38
2023-02-11T14:33:02.759Z,100221.38
2023-02-11T14:38:19.601Z,100229.28
2023-02-11T14:43:28.480Z,100225.91
2023-02-11T14:48:35.370Z,100225.88
2023-02-11T14:53:44.936Z,100223.25
2023-02-11T14:58:49.139Z,100231.13
2023-02-11T15:03:51.985Z,100227.53
2023-02-11T15:09:00.956Z,100231.97
2023-02-11T15:14:10.181Z,100238.28
2023-02-11T15:19:22.248Z,100244.50
2023-02-11T15:24:29.653Z,100247.28
2023-02-11T15:29:39.121Z,100251.63
2023-02-11T15:34:42.069Z,100247.31
2023-02-11T15:39:46.640Z,100251.75
2023-02-11T15:44:56.507Z,100266.03
2023-02-11T15:50:00.306Z,100269.47
2023-02-11T15:55:04.741Z,100269.63
2023-02-11T16:00:08.968Z,100272.41
2023-02-11T16:05:30.261Z,100267.22
2023-02-11T16:10:36.356Z,100276.06
2023-02-11T16:15:52.433Z,100284.94
2023-02-11T16:20:55.569Z,100287.72
2023-02-11T16:26:05.461Z,100297.50
2023-02-11T16:31:09.696Z,100302.09
2023-02-11T16:36:14.887Z,100306.53
2023-02-11T16:41:19.089Z,100308.31
2023-02-11T16:46:21.816Z,100315.53
2023-02-11T16:51:24.747Z,100311.22
2023-02-11T16:56:29.004Z,100313.00
2023-02-11T17:01:32.829Z,100317.50
2023-02-11T17:06:36.116Z,100321.91
2023-02-11T17:11:40.254Z,100332.53
2023-02-11T17:16:43.454Z,100334.38
2023-02-11T17:21:47.320Z,100337.94
2023-02-11T17:26:51.950Z,100336.25
2023-02-11T17:31:54.994Z,100345.91
2023-02-11T17:36:59.624Z,100347.84
2023-02-11T17:42:05.485Z,100355.81
2023-02-11T17:47:08.241Z,100355.88
2023-02-11T17:52:11.063Z,100352.38
2023-02-11T17:57:15.204Z,100365.59
2023-02-11T18:02:18.039Z,100367.41
2023-02-11T18:07:20.901Z,100372.72
2023-02-11T18:12:26.249Z,100373.59
2023-02-11T18:17:29.227Z,100372.78
2023-02-11T18:22:36.643Z,100366.69
2023-02-11T18:27:40.808Z,100374.59
2023-02-11T18:32:43.754Z,100371.84
2023-02-11T18:37:46.607Z,100355.13
2023-02-11T18:42:50.747Z,100355.22
2023-02-11T18:47:53.440Z,100371.06
2023-02-11T18:52:56.246Z,100365.66
2023-02-11T18:58:00.426Z,100366.50
2023-02-11T19:03:03.473Z,100370.94
2023-02-11T19:08:06.333Z,100370.94
2023-02-11T19:13:10.941Z,100372.78
2023-02-11T19:18:15.931Z,100374.50
2023-02-11T19:23:18.708Z,100362.19
2023-02-11T19:28:23.087Z,100361.31
2023-02-11T19:33:25.919Z,100368.34
2023-02-11T19:38:28.819Z,100371.84
2023-02-11T19:43:32.889Z,100386.72
2023-02-11T19:48:35.710Z,100398.22
2023-02-11T19:53:38.826Z,100397.31
2023-02-11T19:58:43.774Z,100399.03
2023-02-11T20:03:50.297Z,100403.41
2023-02-11T20:08:56.504Z,100410.50
2023-02-11T20:14:02.502Z,100407.88
2023-02-11T20:19:05.195Z,100419.28
2023-02-11T20:24:08.236Z,100417.72
2023-02-11T20:29:12.602Z,100417.72
2023-02-11T20:34:17.482Z,100422.94
2023-02-11T20:39:21.815Z,100423.84
2023-02-11T20:44:26.119Z,100429.09
2023-02-11T20:49:29.050Z,100427.47
2023-02-11T20:54:31.842Z,100419.47
2023-02-11T20:59:36.028Z,100418.66
2023-02-11T21:04:39.131Z,100422.22
2023-02-11T21:09:42.141Z,100426.59
2023-02-11T21:14:46.851Z,100425.75
2023-02-11T21:19:49.536Z,100421.28
2023-02-11T21:24:52.369Z,100429.38
2023-02-11T21:29:56.481Z,100426.69
2023-02-11T21:35:02.184Z,100438.19
2023-02-11T21:40:05.598Z,100442.56
2023-02-11T21:45:10.702Z,100441.78
2023-02-11T21:50:13.870Z,100447.94
2023-02-11T21:55:16.626Z,100456.69
2023-02-11T22:00:21.610Z,100460.16
2023-02-11T22:05:24.776Z,100453.22
2023-02-11T22:10:27.530Z,100469.91
2023-02-11T22:15:31.767Z,100460.25
2023-02-11T22:20:34.501Z,100459.38
2023-02-11T22:25:37.770Z,100471.66
2023-02-11T22:30:41.977Z,100469.03
2023-02-11T22:35:44.718Z,100482.19
2023-02-11T22:40:47.455Z,100474.31
2023-02-11T22:45:52.252Z,100469.94
2023-02-11T22:50:55.179Z,100474.38
2023-02-11T22:55:58.241Z,100475.22
2023-02-11T23:01:03.021Z,100474.41
2023-02-11T23:06:06.477Z,100478.78
2023-02-11T23:11:12.280Z,100491.19
2023-02-11T23:16:19.196Z,100493.81
2023-02-11T23:21:24.093Z,100493.81
2023-02-11T23:26:27.513Z,100492.91
2023-02-11T23:31:34.478Z,100489.41
2023-02-11T23:36:37.210Z,100489.41
2023-02-11T23:41:40.007Z,100493.00
2023-02-11T23:46:44.125Z,100496.53
2023-02-11T23:51:46.915Z,100497.44
2023-02-11T23:56:49.712Z,100497.44
